Time;durP1;ratioP1;P1;durP2;ratioP2;P2;SDS_P1;SDS_P2;PMS_P1;PMS_P2;Temp;Humidity;BMP_temperature;BMP_pressure;BME280_temperature;BME280_humidity;BME280_pressure;Samples;Min_cycle;Max_cycle;Signal;HPM_P1;HPM_P2
2022/05/26 00:00:39;;;;;;;0.00;0.00;;;;;;;;;;5086755;28;20439;-59
2022/05/26 00:03:05;;;;;;;0.00;0.00;;;;;;;;;;5087713;28;20651;-59
2022/05/26 00:05:30;;;;;;;0.00;0.00;;;;;;;;;;5086890;28;20720;-59
2022/05/26 00:07:55;;;;;;;0.00;0.00;;;;;;;;;;5087457;28;20080;-59
2022/05/26 00:10:22;;;;;;;0.00;0.00;;;;;;;;;;5069629;28;20032;-59
2022/05/26 00:12:47;;;;;;;0.80;0.80;;;;;;;;;;5087634;28;20024;-60
2022/05/26 00:15:13;;;;;;;0.00;0.00;;;;;;;;;;5085784;28;20031;-59
2022/05/26 00:17:39;;;;;;;0.00;0.00;;;;;;;;;;5088082;28;20494;-59
2022/05/26 00:20:05;;;;;;;0.00;0.00;;;;;;;;;;5087581;28;20023;-59
2022/05/26 00:22:30;;;;;;;0.00;0.00;;;;;;;;;;5087969;28;20035;-60
2022/05/26 00:24:56;;;;;;;0.17;0.17;;;;;;;;;;5087158;28;20028;-60
2022/05/26 00:27:21;;;;;;;0.00;0.00;;;;;;;;;;5087969;28;20028;-60
2022/05/26 00:29:46;;;;;;;0.00;0.00;;;;;;;;;;5087178;28;20028;-59
2022/05/26 00:32:11;;;;;;;0.00;0.00;;;;;;;;;;5087476;28;20016;-59
2022/05/26 00:34:37;;;;;;;0.00;0.00;;;;;;;;;;5089664;28;20023;-60
2022/05/26 00:37:05;;;;;;;0.00;0.00;;;;;;;;;;5091308;28;20376;-59
2022/05/26 00:39:30;;;;;;;0.00;0.00;;;;;;;;;;5091355;28;20472;-58
2022/05/26 00:41:58;;;;;;;0.00;0.00;;;;;;;;;;5090913;28;20024;-59
2022/05/26 00:44:23;;;;;;;0.00;0.00;;;;;;;;;;5090223;28;20286;-60
2022/05/26 00:47:09;;;;;;;0.00;0.00;;;;;;;;;;5089551;28;20047;-59
2022/05/26 00:49:34;;;;;;;0.00;0.00;;;;;;;;;;5091378;28;20028;-62
2022/05/26 00:52:00;;;;;;;0.00;0.00;;;;;;;;;;5090778;28;20023;-61
2022/05/26 00:54:26;;;;;;;0.00;0.00;;;;;;;;;;5091163;28;20032;-61
2022/05/26 00:56:51;;;;;;;0.00;0.00;;;;;;;;;;5090728;28;20068;-62
2022/05/26 00:59:20;;;;;;;0.00;0.00;;;;;;;;;;5091077;28;20825;-60
2022/05/26 01:01:46;;;;;;;0.00;0.00;;;;;;;;;;5090703;28;20035;-60
2022/05/26 01:04:14;;;;;;;0.00;0.00;;;;;;;;;;5088782;28;20024;-61
2022/05/26 01:06:55;;;;;;;0.00;0.00;;;;;;;;;;5091390;28;20035;-61
2022/05/26 01:09:20;;;;;;;0.00;0.00;;;;;;;;;;5091254;28;20031;-61
2022/05/26 01:11:45;;;;;;;0.20;0.20;;;;;;;;;;5090899;28;20027;-61
2022/05/26 01:14:13;;;;;;;0.00;0.00;;;;;;;;;;5090598;28;20107;-60
2022/05/26 01:16:57;;;;;;;0.00;0.00;;;;;;;;;;5090620;28;20031;-61
2022/05/26 01:19:41;;;;;;;0.00;0.00;;;;;;;;;;5090745;28;20109;-61
2022/05/26 01:22:29;;;;;;;0.00;0.00;;;;;;;;;;5089285;28;20028;-62
2022/05/26 01:24:54;;;;;;;0.20;0.10;;;;;;;;;;5089469;28;20020;-62
2022/05/26 01:27:19;;;;;;;0.00;0.00;;;;;;;;;;5090644;28;20039;-61
2022/05/26 01:30:00;;;;;;;0.00;0.00;;;;;;;;;;5090194;28;20020;-60
2022/05/26 01:32:40;;;;;;;0.00;0.00;;;;;;;;;;5089092;28;20277;-60
2022/05/26 01:35:17;;;;;;;0.00;0.00;;;;;;;;;;5092143;28;20016;-58
2022/05/26 01:37:42;;;;;;;0.00;0.00;;;;;;;;;;5089862;28;20016;-59
2022/05/26 01:40:10;;;;;;;0.00;0.00;;;;;;;;;;5092512;28;20031;-59
2022/05/26 01:42:49;;;;;;;0.00;0.00;;;;;;;;;;5092246;28;20308;-60
2022/05/26 01:45:14;;;;;;;0.00;0.00;;;;;;;;;;5089276;28;20038;-60
2022/05/26 01:47:54;;;;;;;0.00;0.00;;;;;;;;;;5091703;28;20099;-59
2022/05/26 01:50:32;;;;;;;0.00;0.00;;;;;;;;;;5091757;28;20028;-59
2022/05/26 01:53:08;;;;;;;0.00;0.00;;;;;;;;;;5091838;28;20597;-59
2022/05/26 01:55:54;;;;;;;0.00;0.00;;;;;;;;;;5092591;28;20048;-59
2022/05/26 01:58:27;;;;;;;0.00;0.00;;;;;;;;;;5092385;28;20070;-60
2022/05/26 02:00:53;;;;;;;0.00;0.00;;;;;;;;;;5092454;28;20635;-59
2022/05/26 02:03:21;;;;;;;0.00;0.00;;;;;;;;;;5091631;28;20556;-59
2022/05/26 02:05:49;;;;;;;0.00;0.00;;;;;;;;;;5092041;28;20051;-59
2022/05/26 02:08:17;;;;;;;0.00;0.00;;;;;;;;;;5090925;28;20119;-60
2022/05/26 02:10:57;;;;;;;0.00;0.00;;;;;;;;;;5090661;28;20020;-58
2022/05/26 02:13:34;;;;;;;0.00;0.00;;;;;;;;;;5090905;28;20030;-59
2022/05/26 02:16:09;;;;;;;0.00;0.00;;;;;;;;;;5090532;28;20361;-60
2022/05/26 02:18:38;;;;;;;0.00;0.00;;;;;;;;;;5091861;28;20562;-58
2022/05/26 02:21:07;;;;;;;0.00;0.00;;;;;;;;;;5090043;28;20028;-59
2022/05/26 02:23:35;;;;;;;0.00;0.00;;;;;;;;;;5091702;28;20085;-60
2022/05/26 02:26:01;;;;;;;0.00;0.00;;;;;;;;;;5091594;28;20147;-60
2022/05/26 02:28:27;;;;;;;0.00;0.00;;;;;;;;;;5090275;28;20443;-60
2022/05/26 02:30:53;;;;;;;0.00;0.00;;;;;;;;;;5090931;28;20008;-58
2022/05/26 02:33:19;;;;;;;0.00;0.00;;;;;;;;;;5091399;28;20365;-59
2022/05/26 02:35:49;;;;;;;0.00;0.00;;;;;;;;;;5091173;28;20024;-59
2022/05/26 02:38:16;;;;;;;0.00;0.00;;;;;;;;;;5089913;28;20020;-57
2022/05/26 02:40:42;;;;;;;0.00;0.00;;;;;;;;;;5091506;28;20028;-62
2022/05/26 02:43:15;;;;;;;0.00;0.00;;;;;;;;;;5092399;28;20020;-61
2022/05/26 02:45:50;;;;;;;0.00;0.00;;;;;;;;;;5091788;28;20024;-61
2022/05/26 02:48:15;;;;;;;0.00;0.00;;;;;;;;;;5092035;28;20024;-60
2022/05/26 02:50:43;;;;;;;0.00;0.00;;;;;;;;;;5091733;28;20016;-60
2022/05/26 02:53:27;;;;;;;0.00;0.00;;;;;;;;;;5091358;28;20258;-61
2022/05/26 02:55:59;;;;;;;0.00;0.00;;;;;;;;;;5091354;28;20499;-62
2022/05/26 02:58:43;;;;;;;0.00;0.00;;;;;;;;;;5091934;28;20016;-62
2022/05/26 03:01:18;;;;;;;0.00;0.00;;;;;;;;;;5092915;28;20024;-61
2022/05/26 03:04:04;;;;;;;0.00;0.00;;;;;;;;;;5093512;28;20042;-61
2022/05/26 03:06:42;;;;;;;0.00;0.00;;;;;;;;;;5092776;28;20027;-61
2022/05/26 03:09:08;;;;;;;0.00;0.00;;;;;;;;;;5092611;28;20044;-60
2022/05/26 03:11:47;;;;;;;0.00;0.00;;;;;;;;;;5092306;28;20016;-62
2022/05/26 03:14:13;;;;;;;0.00;0.00;;;;;;;;;;5090265;28;20028;-60
2022/05/26 03:16:38;;;;;;;0.00;0.00;;;;;;;;;;5092230;28;20075;-61
2022/05/26 03:19:05;;;;;;;0.00;0.00;;;;;;;;;;5092049;28;20465;-59
2022/05/26 03:21:30;;;;;;;0.00;0.00;;;;;;;;;;5092587;28;20023;-61
2022/05/26 03:23:55;;;;;;;0.00;0.00;;;;;;;;;;5091887;28;20353;-60
2022/05/26 03:26:21;;;;;;;0.00;0.00;;;;;;;;;;5073302;28;20675;-60
2022/05/26 03:28:47;;;;;;;0.00;0.00;;;;;;;;;;5091191;28;20296;-60
2022/05/26 03:31:13;;;;;;;0.00;0.00;;;;;;;;;;5090310;28;20039;-61
2022/05/26 03:41:51;;;;;;;0.00;0.00;;;;;;;;;;5088988;28;20467;-61
2022/05/26 03:44:16;;;;;;;0.00;0.00;;;;;;;;;;5089156;28;20024;-60
2022/05/26 03:46:41;;;;;;;0.00;0.00;;;;;;;;;;5090783;28;20366;-61
2022/05/26 03:49:06;;;;;;;0.00;0.00;;;;;;;;;;5092999;28;20043;-60
2022/05/26 03:51:32;;;;;;;0.00;0.00;;;;;;;;;;5092560;28;20032;-60
2022/05/26 03:53:57;;;;;;;0.00;0.00;;;;;;;;;;5092092;28;20020;-59
2022/05/26 03:56:22;;;;;;;0.00;0.00;;;;;;;;;;5090826;28;20118;-59
2022/05/26 03:58:47;;;;;;;0.00;0.00;;;;;;;;;;5089494;28;20266;-61
2022/05/26 04:01:14;;;;;;;0.00;0.00;;;;;;;;;;5090180;28;20016;-59
2022/05/26 04:03:39;;;;;;;0.00;0.00;;;;;;;;;;5090433;28;20031;-61
2022/05/26 04:06:04;;;;;;;0.00;0.00;;;;;;;;;;5089530;28;20389;-60
2022/05/26 04:08:29;;;;;;;0.00;0.00;;;;;;;;;;5091294;28;20036;-61
2022/05/26 04:10:55;;;;;;;0.00;0.00;;;;;;;;;;5094231;28;20448;-61
2022/05/26 04:13:20;;;;;;;0.00;0.00;;;;;;;;;;5093865;28;20043;-59
2022/05/26 04:15:45;;;;;;;0.00;0.00;;;;;;;;;;5093565;28;20024;-61
2022/05/26 04:18:11;;;;;;;0.00;0.00;;;;;;;;;;5093559;28;20043;-60
2022/05/26 04:20:36;;;;;;;0.00;0.00;;;;;;;;;;5094243;28;20103;-62
2022/05/26 04:23:01;;;;;;;0.00;0.00;;;;;;;;;;5093819;28;20048;-60
2022/05/26 04:25:27;;;;;;;0.00;0.00;;;;;;;;;;5093484;28;20087;-61
2022/05/26 04:27:53;;;;;;;0.00;0.00;;;;;;;;;;5092543;28;20030;-60
2022/05/26 04:30:19;;;;;;;0.00;0.00;;;;;;;;;;5094028;28;20529;-60
2022/05/26 04:32:44;;;;;;;0.00;0.00;;;;;;;;;;5094101;28;20107;-60
2022/05/26 04:35:09;;;;;;;0.00;0.00;;;;;;;;;;5093374;28;20024;-61
2022/05/26 04:37:35;;;;;;;0.00;0.00;;;;;;;;;;5093726;28;20024;-61
2022/05/26 04:40:01;;;;;;;0.00;0.00;;;;;;;;;;5094149;28;20031;-60
2022/05/26 04:42:27;;;;;;;0.00;0.00;;;;;;;;;;5093621;28;20066;-60
2022/05/26 04:44:52;;;;;;;0.00;0.00;;;;;;;;;;5091766;28;20093;-60
2022/05/26 04:47:18;;;;;;;0.00;0.00;;;;;;;;;;5091552;28;20051;-60
2022/05/26 04:49:43;;;;;;;0.00;0.00;;;;;;;;;;5090677;28;20077;-61
2022/05/26 04:52:10;;;;;;;0.00;0.00;;;;;;;;;;5091047;28;20024;-61
2022/05/26 04:54:36;;;;;;;0.00;0.00;;;;;;;;;;5091131;28;20069;-61
2022/05/26 04:57:01;;;;;;;0.00;0.00;;;;;;;;;;5091739;28;20388;-61
2022/05/26 04:59:27;;;;;;;0.00;0.00;;;;;;;;;;5091786;28;20081;-61
2022/05/26 05:01:52;;;;;;;0.00;0.00;;;;;;;;;;5091382;28;20028;-62
2022/05/26 05:04:17;;;;;;;0.00;0.00;;;;;;;;;;5091981;28;20054;-61
2022/05/26 05:06:43;;;;;;;0.60;0.30;;;;;;;;;;5090550;28;20016;-61
2022/05/26 05:09:08;;;;;;;0.25;0.25;;;;;;;;;;5090176;28;20031;-61
2022/05/26 05:11:34;;;;;;;0.00;0.00;;;;;;;;;;5089981;28;20035;-61
2022/05/26 05:14:01;;;;;;;0.00;0.00;;;;;;;;;;5090606;28;20058;-61
2022/05/26 05:16:29;;;;;;;0.00;0.00;;;;;;;;;;5090689;28;20028;-61
2022/05/26 05:18:55;;;;;;;0.00;0.00;;;;;;;;;;5091557;28;20540;-61
2022/05/26 05:21:23;;;;;;;0.00;0.00;;;;;;;;;;5090618;28;20024;-62
2022/05/26 05:23:50;;;;;;;0.00;0.00;;;;;;;;;;5089463;28;20055;-63
2022/05/26 05:26:17;;;;;;;0.32;0.32;;;;;;;;;;5089558;28;20020;-63
2022/05/26 05:28:45;;;;;;;0.00;0.00;;;;;;;;;;5089404;28;20031;-62
2022/05/26 05:31:32;;;;;;;0.00;0.00;;;;;;;;;;5088030;28;20498;-63
2022/05/26 05:34:00;;;;;;;2.08;0.60;;;;;;;;;;5088786;28;20022;-65
2022/05/26 05:36:31;;;;;;;0.10;0.10;;;;;;;;;;5090930;28;20023;-64
2022/05/26 05:38:57;;;;;;;0.05;0.05;;;;;;;;;;5091180;28;20043;-62
2022/05/26 05:41:22;;;;;;;0.00;0.00;;;;;;;;;;5092013;28;20028;-64
2022/05/26 05:43:48;;;;;;;1.02;0.28;;;;;;;;;;5092148;28;20456;-65
2022/05/26 05:46:14;;;;;;;0.00;0.00;;;;;;;;;;5090836;28;20546;-65
2022/05/26 05:48:43;;;;;;;0.10;0.10;;;;;;;;;;5088003;28;20012;-64
2022/05/26 05:51:08;;;;;;;0.00;0.00;;;;;;;;;;5087930;28;20127;-64
2022/05/26 05:53:34;;;;;;;0.00;0.00;;;;;;;;;;5089688;28;20161;-64
2022/05/26 05:55:59;;;;;;;0.00;0.00;;;;;;;;;;5088835;28;20073;-66
2022/05/26 05:58:25;;;;;;;0.00;0.00;;;;;;;;;;5089371;28;20016;-66
2022/05/26 06:00:50;;;;;;;0.10;0.10;;;;;;;;;;5089655;28;20031;-65
2022/05/26 06:03:15;;;;;;;0.50;0.28;;;;;;;;;;5088571;28;20063;-65
2022/05/26 06:05:41;;;;;;;0.00;0.00;;;;;;;;;;5089467;28;20085;-65
2022/05/26 06:08:06;;;;;;;0.05;0.05;;;;;;;;;;5090272;28;20047;-63
2022/05/26 06:10:31;;;;;;;0.00;0.00;;;;;;;;;;5089338;28;20038;-64
2022/05/26 06:12:57;;;;;;;0.00;0.00;;;;;;;;;;5089269;28;20032;-65
2022/05/26 06:15:23;;;;;;;0.03;0.03;;;;;;;;;;5087947;28;20035;-67
2022/05/26 06:17:48;;;;;;;0.00;0.00;;;;;;;;;;5088913;28;20102;-65
2022/05/26 06:20:13;;;;;;;0.00;0.00;;;;;;;;;;5087608;28;20042;-63
2022/05/26 06:22:46;;;;;;;0.05;0.05;;;;;;;;;;5089387;28;20028;-63
2022/05/26 06:25:12;;;;;;;0.00;0.00;;;;;;;;;;5090870;28;20052;-63
2022/05/26 06:30:21;;;;;;;0.10;0.10;;;;;;;;;;5089679;28;20070;-64
2022/05/26 06:38:20;;;;;;;0.00;0.00;;;;;;;;;;5088887;28;20097;-66
2022/05/26 06:40:45;;;;;;;0.47;0.35;;;;;;;;;;5088604;28;20020;-66
2022/05/26 06:43:10;;;;;;;0.00;0.00;;;;;;;;;;5089133;28;20026;-65
2022/05/26 06:45:36;;;;;;;0.00;0.00;;;;;;;;;;5089868;28;20064;-66
2022/05/26 06:48:01;;;;;;;0.20;0.20;;;;;;;;;;5087707;28;20081;-66
2022/05/26 06:50:50;;;;;;;0.00;0.00;;;;;;;;;;5088774;28;20069;-65
2022/05/26 06:53:38;;;;;;;0.00;0.00;;;;;;;;;;4985932;28;20045;-67
2022/05/26 06:56:04;;;;;;;0.00;0.00;;;;;;;;;;4984996;28;20145;-66
2022/05/26 06:58:30;;;;;;;0.00;0.00;;;;;;;;;;4986482;28;20050;-66
2022/05/26 07:00:55;;;;;;;0.00;0.00;;;;;;;;;;4986526;28;20045;-67
2022/05/26 07:03:21;;;;;;;0.00;0.00;;;;;;;;;;4985681;28;20022;-67
2022/05/26 07:05:46;;;;;;;0.00;0.00;;;;;;;;;;4986366;28;20101;-67
2022/05/26 07:08:13;;;;;;;0.00;0.00;;;;;;;;;;4997060;28;20142;-66
2022/05/26 07:10:39;;;;;;;0.00;0.00;;;;;;;;;;4999834;28;20431;-66
2022/05/26 07:13:04;;;;;;;0.00;0.00;;;;;;;;;;5002124;28;20025;-67
2022/05/26 07:15:30;;;;;;;0.10;0.10;;;;;;;;;;4997873;28;20022;-66
2022/05/26 07:17:55;;;;;;;0.00;0.00;;;;;;;;;;4997762;28;20038;-67
2022/05/26 07:20:20;;;;;;;0.00;0.00;;;;;;;;;;4997843;28;20027;-67
2022/05/26 07:22:45;;;;;;;0.00;0.00;;;;;;;;;;4999930;28;20105;-67
2022/05/26 07:25:11;;;;;;;0.00;0.00;;;;;;;;;;5001161;28;20045;-67
2022/05/26 07:27:36;;;;;;;0.00;0.00;;;;;;;;;;5001269;28;20026;-67
2022/05/26 07:30:01;;;;;;;0.00;0.00;;;;;;;;;;5026684;28;20033;-67
2022/05/26 07:32:27;;;;;;;0.00;0.00;;;;;;;;;;5061742;28;20382;-67
2022/05/26 07:34:52;;;;;;;0.00;0.00;;;;;;;;;;5047400;28;20021;-68
2022/05/26 07:42:45;;;;;;;0.00;0.00;;;;;;;;;;5064473;28;20035;-67
2022/05/26 07:45:12;;;;;;;0.00;0.00;;;;;;;;;;5068143;28;20024;-66
2022/05/26 07:47:37;;;;;;;0.00;0.00;;;;;;;;;;5075220;28;20024;-68
2022/05/26 07:50:04;;;;;;;0.00;0.00;;;;;;;;;;5071875;28;20023;-67
2022/05/26 07:52:30;;;;;;;0.00;0.00;;;;;;;;;;5074976;28;20365;-66
2022/05/26 07:54:55;;;;;;;0.00;0.00;;;;;;;;;;5073688;28;20034;-67
2022/05/26 07:57:25;;;;;;;0.00;0.00;;;;;;;;;;5075805;28;20482;-64
2022/05/26 07:59:51;;;;;;;0.00;0.00;;;;;;;;;;5072739;28;20353;-63
2022/05/26 08:02:17;;;;;;;0.00;0.00;;;;;;;;;;5075827;28;20111;-64
2022/05/26 08:04:42;;;;;;;0.00;0.00;;;;;;;;;;5071459;28;20025;-68
2022/05/26 08:07:07;;;;;;;0.22;0.22;;;;;;;;;;5069823;28;20052;-68
2022/05/26 08:09:33;;;;;;;0.00;0.00;;;;;;;;;;5090616;28;20016;-68
2022/05/26 08:11:58;;;;;;;0.00;0.00;;;;;;;;;;5092477;28;20032;-69
2022/05/26 08:14:23;;;;;;;0.00;0.00;;;;;;;;;;5077103;28;20535;-69
2022/05/26 08:16:49;;;;;;;0.00;0.00;;;;;;;;;;5078416;28;20495;-67
2022/05/26 08:19:14;;;;;;;0.00;0.00;;;;;;;;;;5090734;28;20316;-68
2022/05/26 08:21:39;;;;;;;0.00;0.00;;;;;;;;;;5091745;28;20479;-67
2022/05/26 08:24:05;;;;;;;0.75;0.20;;;;;;;;;;5088789;28;20254;-68
2022/05/26 08:26:30;;;;;;;0.00;0.00;;;;;;;;;;5070176;28;20425;-67
2022/05/26 08:28:56;;;;;;;0.00;0.00;;;;;;;;;;5085584;28;20058;-66
2022/05/26 08:31:21;;;;;;;0.15;0.15;;;;;;;;;;5091094;28;20320;-65
2022/05/26 08:33:47;;;;;;;0.10;0.10;;;;;;;;;;5089510;28;20506;-65
2022/05/26 08:36:14;;;;;;;0.00;0.00;;;;;;;;;;5091115;28;20032;-66
2022/05/26 08:38:44;;;;;;;0.00;0.00;;;;;;;;;;5091628;28;20056;-68
2022/05/26 08:41:12;;;;;;;0.00;0.00;;;;;;;;;;5087879;28;20063;-70
2022/05/26 08:43:43;;;;;;;1.08;1.05;;;;;;;;;;5085961;28;20020;-65
2022/05/26 08:46:12;;;;;;;0.00;0.00;;;;;;;;;;5089123;28;20133;-64
2022/05/26 08:48:40;;;;;;;0.00;0.00;;;;;;;;;;5087950;28;20024;-65
2022/05/26 08:51:07;;;;;;;0.32;0.32;;;;;;;;;;5086792;28;20476;-66
2022/05/26 08:53:42;;;;;;;0.00;0.00;;;;;;;;;;5090429;28;20433;-64
2022/05/26 08:56:11;;;;;;;0.08;0.00;;;;;;;;;;5090239;28;20078;-66
2022/05/26 08:58:41;;;;;;;0.00;0.00;;;;;;;;;;5089121;28;20020;-66
2022/05/26 09:01:08;;;;;;;0.00;0.00;;;;;;;;;;5084894;28;20531;-65
2022/05/26 09:03:34;;;;;;;0.00;0.00;;;;;;;;;;5091168;28;20023;-66
2022/05/26 09:06:03;;;;;;;0.00;0.00;;;;;;;;;;5090895;28;20119;-65
2022/05/26 09:14:05;;;;;;;0.30;0.10;;;;;;;;;;5084933;28;20036;-65
2022/05/26 09:16:32;;;;;;;1.50;0.10;;;;;;;;;;5093399;28;20024;-65
2022/05/26 09:19:11;;;;;;;0.10;0.10;;;;;;;;;;5089475;28;20036;-65
2022/05/26 09:21:37;;;;;;;0.00;0.00;;;;;;;;;;5088140;28;20089;-65
2022/05/26 09:24:16;;;;;;;0.00;0.00;;;;;;;;;;5086900;28;20016;-65
2022/05/26 09:26:46;;;;;;;0.20;0.20;;;;;;;;;;5090457;28;20478;-65
2022/05/26 09:29:15;;;;;;;0.00;0.00;;;;;;;;;;5087121;28;20469;-65
2022/05/26 09:31:45;;;;;;;0.10;0.10;;;;;;;;;;5084554;28;20428;-65
2022/05/26 09:34:18;;;;;;;0.00;0.00;;;;;;;;;;5082392;28;20060;-65
2022/05/26 09:36:48;;;;;;;0.00;0.00;;;;;;;;;;5088346;28;20101;-66
2022/05/26 09:39:17;;;;;;;1.02;0.95;;;;;;;;;;5089297;28;20145;-66
2022/05/26 09:41:46;;;;;;;0.00;0.00;;;;;;;;;;5089032;28;20027;-65
2022/05/26 09:44:27;;;;;;;0.00;0.00;;;;;;;;;;5082414;28;20337;-66
2022/05/26 09:46:53;;;;;;;0.90;0.20;;;;;;;;;;5088409;28;20028;-66
2022/05/26 09:49:24;;;;;;;0.00;0.00;;;;;;;;;;5088106;28;20024;-65
2022/05/26 09:51:49;;;;;;;0.00;0.00;;;;;;;;;;5089916;28;20464;-66
2022/05/26 09:54:20;;;;;;;0.00;0.00;;;;;;;;;;5082346;28;20017;-65
2022/05/26 09:56:46;;;;;;;0.00;0.00;;;;;;;;;;5083999;28;20020;-65
2022/05/26 09:59:31;;;;;;;4.95;1.85;;;;;;;;;;5087992;28;20035;-66
2022/05/26 10:02:09;;;;;;;0.00;0.00;;;;;;;;;;5082514;28;20029;-67
2022/05/26 10:04:37;;;;;;;0.00;0.00;;;;;;;;;;5079285;28;20031;-66
2022/05/26 10:07:11;;;;;;;0.05;0.05;;;;;;;;;;5061735;28;20043;-65
2022/05/26 10:09:55;;;;;;;0.00;0.00;;;;;;;;;;5085158;28;20031;-66
2022/05/26 10:12:38;;;;;;;0.03;0.03;;;;;;;;;;5085560;28;20027;-66
2022/05/26 10:15:17;;;;;;;0.45;0.45;;;;;;;;;;5089277;28;20047;-67
2022/05/26 10:18:01;;;;;;;0.10;0.10;;;;;;;;;;5085913;28;20070;-67
2022/05/26 10:20:26;;;;;;;2.33;0.25;;;;;;;;;;5089004;28;20043;-66
2022/05/26 10:23:10;;;;;;;0.05;0.05;;;;;;;;;;5070852;28;20469;-66
2022/05/26 10:25:44;;;;;;;0.43;0.43;;;;;;;;;;5081505;28;20020;-66
2022/05/26 10:28:24;;;;;;;0.00;0.00;;;;;;;;;;5086911;28;20047;-66
2022/05/26 10:30:56;;;;;;;0.10;0.10;;;;;;;;;;5081460;28;20074;-66
2022/05/26 10:33:40;;;;;;;0.00;0.00;;;;;;;;;;5088654;28;20070;-66
2022/05/26 10:36:15;;;;;;;0.00;0.00;;;;;;;;;;5087276;28;20527;-64
2022/05/26 10:38:41;;;;;;;0.00;0.00;;;;;;;;;;5088067;28;20049;-65
2022/05/26 10:41:16;;;;;;;0.00;0.00;;;;;;;;;;5088715;28;20388;-65
2022/05/26 10:43:45;;;;;;;0.00;0.00;;;;;;;;;;5076744;28;20305;-65
2022/05/26 10:46:10;;;;;;;;;;;;;;;;;;5089205;28;20031;-64
2022/05/26 10:48:40;;;;;;;3.38;0.10;;;;;;;;;;5089766;28;19908;-64
2022/05/26 10:51:08;;;;;;;0.00;0.00;;;;;;;;;;5087282;28;20066;-65
2022/05/26 10:53:41;;;;;;;0.00;0.00;;;;;;;;;;5076200;28;20027;-64
2022/05/26 10:56:18;;;;;;;0.00;0.00;;;;;;;;;;5088812;28;20020;-65
2022/05/26 10:58:46;;;;;;;0.00;0.00;;;;;;;;;;5088674;28;20028;-67
2022/05/26 11:01:15;;;;;;;0.00;0.00;;;;;;;;;;5079803;28;20071;-65
2022/05/26 11:03:42;;;;;;;0.00;0.00;;;;;;;;;;5083101;28;20016;-65
2022/05/26 11:06:25;;;;;;;0.00;0.00;;;;;;;;;;5088208;28;20024;-65
2022/05/26 11:08:54;;;;;;;0.00;0.00;;;;;;;;;;5087446;28;20048;-64
2022/05/26 11:11:36;;;;;;;0.03;0.03;;;;;;;;;;5081993;28;20019;-64
2022/05/26 11:14:02;;;;;;;0.05;0.05;;;;;;;;;;5083159;28;20038;-66
2022/05/26 11:19:33;;;;;;;0.00;0.00;;;;;;;;;;5083591;28;20261;-65
2022/05/26 11:21:59;;;;;;;0.00;0.00;;;;;;;;;;5081518;28;20089;-65
2022/05/26 11:24:24;;;;;;;0.00;0.00;;;;;;;;;;5087984;28;20016;-66
2022/05/26 11:26:57;;;;;;;0.00;0.00;;;;;;;;;;5087735;28;20020;-66
2022/05/26 11:29:30;;;;;;;0.00;0.00;;;;;;;;;;5079926;28;20024;-66
2022/05/26 11:37:37;;;;;;;0.30;0.30;;;;;;;;;;5086787;28;20051;-67
2022/05/26 11:40:06;;;;;;;0.00;0.00;;;;;;;;;;5088164;28;20032;-65
2022/05/26 11:42:31;;;;;;;;;;;;;;;;;;5086852;28;20034;-65
2022/05/26 11:45:14;;;;;;;0.00;0.00;;;;;;;;;;5088188;28;19912;-65
2022/05/26 11:47:54;;;;;;;0.10;0.10;;;;;;;;;;5087080;28;20016;-67
2022/05/26 11:50:23;;;;;;;0.00;0.00;;;;;;;;;;5082410;28;20035;-66
2022/05/26 11:52:54;;;;;;;0.00;0.00;;;;;;;;;;5087876;28;20027;-65
2022/05/26 11:55:29;;;;;;;0.00;0.00;;;;;;;;;;5086224;28;20359;-65
2022/05/26 11:57:54;;;;;;;0.00;0.00;;;;;;;;;;5087853;28;20926;-65
2022/05/26 12:00:38;;;;;;;0.00;0.00;;;;;;;;;;5087806;28;20044;-66
2022/05/26 12:03:22;;;;;;;0.00;0.00;;;;;;;;;;5088497;28;20028;-65
2022/05/26 12:06:09;;;;;;;1.55;1.45;;;;;;;;;;5084805;28;20816;-66
2022/05/26 12:08:39;;;;;;;0.00;0.00;;;;;;;;;;5084742;28;20444;-65
2022/05/26 12:11:07;;;;;;;0.00;0.00;;;;;;;;;;5088655;28;20020;-65
2022/05/26 12:13:34;;;;;;;0.00;0.00;;;;;;;;;;5081114;28;20016;-64
2022/05/26 12:16:22;;;;;;;0.00;0.00;;;;;;;;;;5084001;28;20024;-64
2022/05/26 12:19:01;;;;;;;0.25;0.00;;;;;;;;;;5085303;28;20032;-64
2022/05/26 12:21:26;;;;;;;0.00;0.00;;;;;;;;;;5081962;28;20074;-64
2022/05/26 12:23:52;;;;;;;0.00;0.00;;;;;;;;;;5084180;28;20472;-63
2022/05/26 12:26:26;;;;;;;0.00;0.00;;;;;;;;;;5081467;28;20278;-63
2022/05/26 12:28:51;;;;;;;0.00;0.00;;;;;;;;;;5088650;28;20433;-64
2022/05/26 12:31:16;;;;;;;0.00;0.00;;;;;;;;;;5091150;28;20099;-65
2022/05/26 12:33:48;;;;;;;0.00;0.00;;;;;;;;;;5085821;28;20428;-64
2022/05/26 12:36:32;;;;;;;0.00;0.00;;;;;;;;;;5087599;28;20048;-64
2022/05/26 12:39:00;;;;;;;0.00;0.00;;;;;;;;;;5088599;28;20039;-62
2022/05/26 12:41:25;;;;;;;0.00;0.00;;;;;;;;;;5089671;28;20054;-63
2022/05/26 12:43:59;;;;;;;0.00;0.00;;;;;;;;;;5086332;28;20128;-63
2022/05/26 12:46:27;;;;;;;0.00;0.00;;;;;;;;;;5088733;28;20269;-63
2022/05/26 12:49:01;;;;;;;0.10;0.10;;;;;;;;;;5086331;28;20020;-63
2022/05/26 12:51:32;;;;;;;0.98;0.75;;;;;;;;;;5086444;28;20026;-63
2022/05/26 12:53:58;;;;;;;0.00;0.00;;;;;;;;;;5087101;28;20024;-63
2022/05/26 12:56:39;;;;;;;0.00;0.00;;;;;;;;;;5089107;28;20028;-63
2022/05/26 12:59:04;;;;;;;0.00;0.00;;;;;;;;;;5086401;28;20035;-63
2022/05/26 13:01:30;;;;;;;0.00;0.00;;;;;;;;;;5084334;28;20024;-63
2022/05/26 13:03:55;;;;;;;0.00;0.00;;;;;;;;;;5087875;28;20027;-63
2022/05/26 13:06:21;;;;;;;0.10;0.10;;;;;;;;;;5087344;28;20024;-63
2022/05/26 13:08:55;;;;;;;0.00;0.00;;;;;;;;;;5087793;28;20396;-62
2022/05/26 13:11:21;;;;;;;0.00;0.00;;;;;;;;;;5086154;28;20265;-63
2022/05/26 13:13:49;;;;;;;0.00;0.00;;;;;;;;;;5081543;28;20107;-63
2022/05/26 13:16:31;;;;;;;0.00;0.00;;;;;;;;;;5086086;28;20113;-63
2022/05/26 13:19:11;;;;;;;0.00;0.00;;;;;;;;;;5059977;28;20358;-63
2022/05/26 13:21:37;;;;;;;0.00;0.00;;;;;;;;;;5083236;28;20028;-63
2022/05/26 13:24:02;;;;;;;0.00;0.00;;;;;;;;;;5085359;28;20019;-64
2022/05/26 13:26:28;;;;;;;1.20;0.32;;;;;;;;;;5086969;28;20008;-64
2022/05/26 13:28:55;;;;;;;0.00;0.00;;;;;;;;;;5086722;28;20019;-64
2022/05/26 13:34:05;;;;;;;0.00;0.00;;;;;;;;;;5086598;28;20039;-63
2022/05/26 13:36:37;;;;;;;0.57;0.20;;;;;;;;;;5082007;28;20032;-64
2022/05/26 13:39:08;;;;;;;0.22;0.22;;;;;;;;;;5088741;28;20086;-64
2022/05/26 13:41:33;;;;;;;0.00;0.00;;;;;;;;;;5088652;28;20048;-64
2022/05/26 13:44:01;;;;;;;0.00;0.00;;;;;;;;;;5085794;28;20444;-64
2022/05/26 13:46:32;;;;;;;0.00;0.00;;;;;;;;;;5074891;28;20136;-65
2022/05/26 13:49:16;;;;;;;0.00;0.00;;;;;;;;;;5083475;28;20460;-64
2022/05/26 13:51:45;;;;;;;0.00;0.00;;;;;;;;;;5077788;28;20016;-63
2022/05/26 13:54:10;;;;;;;0.00;0.00;;;;;;;;;;5081897;28;20085;-63
2022/05/26 13:56:42;;;;;;;0.33;0.23;;;;;;;;;;5086358;28;20020;-64
2022/05/26 13:59:10;;;;;;;0.00;0.00;;;;;;;;;;5081469;28;20317;-63
2022/05/26 14:01:40;;;;;;;0.00;0.00;;;;;;;;;;5085844;28;20050;-64
2022/05/26 14:04:06;;;;;;;2.30;2.20;;;;;;;;;;5086596;28;20444;-64
2022/05/26 14:06:32;;;;;;;0.00;0.00;;;;;;;;;;5090505;28;20099;-64
2022/05/26 14:09:00;;;;;;;0.00;0.00;;;;;;;;;;5084435;28;20051;-64
2022/05/26 14:11:42;;;;;;;0.00;0.00;;;;;;;;;;5084267;28;20052;-64
2022/05/26 14:14:26;;;;;;;0.00;0.00;;;;;;;;;;5083516;28;20027;-62
2022/05/26 14:16:52;;;;;;;0.00;0.00;;;;;;;;;;5081064;28;20063;-63
2022/05/26 14:19:18;;;;;;;0.00;0.00;;;;;;;;;;5081051;28;20051;-64
2022/05/26 14:21:48;;;;;;;0.00;0.00;;;;;;;;;;5077985;28;20542;-64
2022/05/26 14:24:36;;;;;;;0.00;0.00;;;;;;;;;;5085688;28;20463;-64
2022/05/26 14:27:11;;;;;;;0.00;0.00;;;;;;;;;;5089813;28;20020;-63
2022/05/26 14:29:36;;;;;;;0.00;0.00;;;;;;;;;;5088365;28;20028;-63
2022/05/26 14:32:12;;;;;;;0.00;0.00;;;;;;;;;;5082392;28;20500;-64
2022/05/26 14:34:42;;;;;;;0.55;0.25;;;;;;;;;;5091903;28;20055;-63
2022/05/26 14:37:08;;;;;;;3.25;0.57;;;;;;;;;;5090669;28;20016;-63
2022/05/26 14:39:34;;;;;;;0.00;0.00;;;;;;;;;;5090575;28;20034;-63
2022/05/26 14:41:59;;;;;;;0.00;0.00;;;;;;;;;;5085512;28;20016;-64
2022/05/26 14:44:25;;;;;;;0.00;0.00;;;;;;;;;;5090099;28;20107;-64
2022/05/26 14:46:51;;;;;;;0.00;0.00;;;;;;;;;;5092723;28;20146;-64
2022/05/26 14:49:16;;;;;;;0.00;0.00;;;;;;;;;;5092816;28;20023;-64
2022/05/26 14:51:42;;;;;;;0.00;0.00;;;;;;;;;;5089623;28;20042;-64
2022/05/26 14:56:51;;;;;;;0.08;0.08;;;;;;;;;;5080489;28;20085;-64
2022/05/26 14:59:17;;;;;;;3.10;0.70;;;;;;;;;;5089212;28;20407;-63
2022/05/26 15:01:42;;;;;;;0.10;0.10;;;;;;;;;;5081109;28;20024;-65
2022/05/26 15:04:07;;;;;;;0.00;0.00;;;;;;;;;;5088531;28;20012;-69
2022/05/26 15:06:39;;;;;;;0.00;0.00;;;;;;;;;;5069404;28;20114;-66
2022/05/26 15:09:07;;;;;;;0.00;0.00;;;;;;;;;;5072005;28;20119;-66
2022/05/26 15:11:33;;;;;;;0.20;0.20;;;;;;;;;;5083814;28;20023;-65
2022/05/26 15:13:58;;;;;;;0.00;0.00;;;;;;;;;;5075261;28;20028;-65
2022/05/26 15:16:23;;;;;;;0.37;0.23;;;;;;;;;;5080711;28;20024;-64
2022/05/26 15:18:53;;;;;;;0.00;0.00;;;;;;;;;;5080347;28;20261;-65
2022/05/26 15:21:18;;;;;;;0.88;0.20;;;;;;;;;;5072846;28;20032;-66
2022/05/26 15:23:43;;;;;;;0.00;0.00;;;;;;;;;;5076785;28;20027;-66
2022/05/26 15:26:11;;;;;;;0.00;0.00;;;;;;;;;;5080661;28;20048;-65
2022/05/26 15:28:37;;;;;;;0.00;0.00;;;;;;;;;;5077366;28;20028;-66
2022/05/26 15:31:02;;;;;;;2.00;0.05;;;;;;;;;;5083333;28;20098;-66
2022/05/26 15:33:27;;;;;;;0.00;0.00;;;;;;;;;;5076619;28;20100;-66
2022/05/26 15:35:53;;;;;;;0.00;0.00;;;;;;;;;;5081690;28;20038;-62